Terminal Aerodrome Forecast
Issued by NWS Oklahoma City, OK

Home | Current Version | Previous Version | Text Only | Print | Product List | Glossary On
Versions: 1 2 3 4 5 6 7 8 9 10 11 12 13 14
000
FTUS44 KOUN 270520
TAFOUN
TAF
KOUN 270520Z 2706/2806 00000KT P6SM FEW250
     FM271400 16008KT P6SM BKN100
     FM271600 15014G21KT P6SM SCT040 BKN100=

USA.gov is the U.S. government's official web portal to all federal, state and local government web resources and services.